createdAt,value
2022-08-03T00:00:29.826Z,4.67
2022-08-03T00:02:56.685Z,3.70
2022-08-03T00:05:23.864Z,4.30
2022-08-03T00:07:50.626Z,3.93
2022-08-03T00:10:17.549Z,4.97
2022-08-03T00:12:44.723Z,7.87
2022-08-03T00:15:16.373Z,3.77
2022-08-03T00:17:52.795Z,9.47
2022-08-03T00:20:21.860Z,4.13
2022-08-03T00:22:51.852Z,3.87
2022-08-03T00:25:19.122Z,4.60
2022-08-03T00:27:46.028Z,3.93
2022-08-03T00:30:16.909Z,3.73
2022-08-03T00:32:45.332Z,3.53
2022-08-03T00:35:26.633Z,3.90
2022-08-03T00:37:59.811Z,4.07
2022-08-03T00:40:27.396Z,3.30
2022-08-03T00:43:02.622Z,3.57
2022-08-03T00:45:36.857Z,3.53
2022-08-03T00:48:06.248Z,3.50
2022-08-03T00:50:54.160Z,3.40
2022-08-03T00:53:21.713Z,4.10
2022-08-03T00:55:48.944Z,3.70
2022-08-03T00:58:15.951Z,3.17
2022-08-03T01:00:42.874Z,3.60
2022-08-03T01:03:12.563Z,3.60
2022-08-03T01:05:51.810Z,3.90
2022-08-03T01:08:37.251Z,3.13
2022-08-03T01:11:19.069Z,3.77
2022-08-03T01:14:19.084Z,3.50
2022-08-03T01:17:25.854Z,4.00
2022-08-03T01:20:14.627Z,3.73
2022-08-03T01:23:15.021Z,3.80
2022-08-03T01:26:06.025Z,4.00
2022-08-03T01:29:33.399Z,3.50
2022-08-03T01:32:58.563Z,3.93
2022-08-03T01:35:32.674Z,4.30
2022-08-03T01:38:09.839Z,3.60
2022-08-03T01:40:41.267Z,3.90
2022-08-03T01:43:12.697Z,3.67
2022-08-03T01:45:43.714Z,4.83
2022-08-03T01:48:15.068Z,3.77
2022-08-03T01:50:45.024Z,3.70
2022-08-03T01:53:15.539Z,3.50
2022-08-03T01:55:45.858Z,3.70
2022-08-03T01:58:16.586Z,4.10
2022-08-03T02:00:46.186Z,3.70
2022-08-03T02:03:15.490Z,4.10
2022-08-03T02:05:45.395Z,4.10
2022-08-03T02:08:17.852Z,3.47
2022-08-03T02:10:47.430Z,4.03
2022-08-03T02:13:19.210Z,3.80
2022-08-03T02:15:47.400Z,3.87
2022-08-03T02:18:16.218Z,3.70
2022-08-03T02:20:44.582Z,3.53
2022-08-03T02:23:11.506Z,3.80
2022-08-03T02:25:53.052Z,3.90
2022-08-03T02:28:26.380Z,3.50
2022-08-03T02:30:56.694Z,4.23
2022-08-03T02:33:37.987Z,3.73
2022-08-03T02:36:07.830Z,3.30
2022-08-03T02:38:40.860Z,3.17
2022-08-03T02:41:16.968Z,3.60
2022-08-03T02:44:07.080Z,3.43
2022-08-03T02:46:45.069Z,3.70
2022-08-03T02:49:40.761Z,4.60
2022-08-03T02:52:05.743Z,3.70
2022-08-03T02:54:40.607Z,3.93
2022-08-03T02:57:10.503Z,3.43
2022-08-03T02:59:40.841Z,3.87
2022-08-03T03:02:08.719Z,4.00
2022-08-03T03:04:36.339Z,4.03
2022-08-03T03:07:03.760Z,3.83
2022-08-03T03:09:40.523Z,4.10
2022-08-03T03:12:13.370Z,4.37
2022-08-03T03:14:40.834Z,4.07
2022-08-03T03:17:11.208Z,3.93
2022-08-03T03:19:41.307Z,3.80
2022-08-03T03:22:09.612Z,4.07
2022-08-03T03:24:39.671Z,3.80
2022-08-03T03:27:06.823Z,3.90
2022-08-03T03:29:39.503Z,4.33
2022-08-03T03:32:08.353Z,4.50
2022-08-03T03:34:37.471Z,4.10
2022-08-03T03:37:05.093Z,3.90
2022-08-03T03:39:32.247Z,4.07
2022-08-03T03:42:00.994Z,4.07
2022-08-03T03:44:31.238Z,3.87
2022-08-03T03:46:58.582Z,3.90
2022-08-03T03:49:26.887Z,3.77
2022-08-03T03:51:56.657Z,4.27
2022-08-03T03:54:25.452Z,3.60
2022-08-03T03:56:56.186Z,4.00
2022-08-03T03:59:23.025Z,3.33
2022-08-03T04:01:58.869Z,3.93
2022-08-03T04:04:44.450Z,4.70
2022-08-03T04:07:29.731Z,4.10
2022-08-03T04:10:16.216Z,3.97
2022-08-03T04:12:50.375Z,3.67
2022-08-03T04:15:23.950Z,3.77
2022-08-03T04:17:55.846Z,3.53
2022-08-03T04:20:26.230Z,3.47
2022-08-03T04:22:55.739Z,3.70
2022-08-03T04:25:28.015Z,3.77
2022-08-03T04:28:08.095Z,3.37
2022-08-03T04:30:50.759Z,3.67
2022-08-03T04:33:19.373Z,3.50
2022-08-03T04:36:01.070Z,3.83
2022-08-03T04:38:38.621Z,3.33
2022-08-03T04:41:07.339Z,3.80
2022-08-03T04:43:35.997Z,4.70
2022-08-03T04:46:04.430Z,3.80
2022-08-03T04:48:31.396Z,3.93
2022-08-03T04:51:00.710Z,3.70
2022-08-03T04:53:28.610Z,3.20
2022-08-03T04:55:55.349Z,3.73
2022-08-03T04:58:22.108Z,3.60
2022-08-03T05:00:51.249Z,3.70
2022-08-03T05:03:19.469Z,3.87
2022-08-03T05:05:52.344Z,3.50
2022-08-03T05:08:27.826Z,3.97
2022-08-03T05:10:59.177Z,3.30
2022-08-03T05:13:29.013Z,3.60
2022-08-03T05:15:56.074Z,3.87
2022-08-03T05:18:22.918Z,3.70
2022-08-03T05:20:49.752Z,3.40
2022-08-03T05:23:16.561Z,3.73
2022-08-03T05:25:50.134Z,3.23
2022-08-03T05:28:17.238Z,3.63
2022-08-03T05:30:44.019Z,3.43
2022-08-03T05:33:11.354Z,3.07
2022-08-03T05:35:57.624Z,3.73
2022-08-03T05:38:28.565Z,3.23
2022-08-03T05:41:21.961Z,3.23
2022-08-03T05:43:48.266Z,3.60
2022-08-03T05:46:15.322Z,4.03
2022-08-03T05:48:42.977Z,3.47
2022-08-03T05:51:11.387Z,3.43
2022-08-03T05:53:39.662Z,3.63
2022-08-03T05:56:14.220Z,3.20
2022-08-03T05:58:48.586Z,3.00
2022-08-03T06:01:17.319Z,2.87
2022-08-03T06:03:45.933Z,2.93
2022-08-03T06:06:12.790Z,2.77
2022-08-03T06:08:41.711Z,3.30
2022-08-03T06:11:09.617Z,2.70
2022-08-03T06:13:36.718Z,2.70
2022-08-03T06:16:03.956Z,2.37
2022-08-03T06:18:30.871Z,2.20
2022-08-03T06:20:57.735Z,2.23
2022-08-03T06:23:54.109Z,2.70
2022-08-03T06:26:22.734Z,2.83
2022-08-03T06:28:52.998Z,2.47
2022-08-03T06:31:32.916Z,2.90
2022-08-03T06:34:31.426Z,3.00
2022-08-03T06:36:53.004Z,3.10
2022-08-03T06:39:21.114Z,2.70
2022-08-03T06:41:50.979Z,2.70
2022-08-03T06:44:17.783Z,2.60
2022-08-03T06:46:45.636Z,2.13
2022-08-03T06:49:12.823Z,2.47
2022-08-03T06:52:04.476Z,2.50
2022-08-03T06:54:26.439Z,3.03
2022-08-03T06:56:54.426Z,2.87
2022-08-03T07:00:10.148Z,2.50
2022-08-03T07:02:09.668Z,2.40
2022-08-03T07:04:36.502Z,2.30
2022-08-03T07:07:03.596Z,2.30
2022-08-03T07:09:30.422Z,2.17
2022-08-03T07:11:57.384Z,2.70
2022-08-03T07:14:24.157Z,1.87
2022-08-03T07:16:50.899Z,5.13
2022-08-03T07:19:17.707Z,3.23
2022-08-03T07:21:45.350Z,2.10
2022-08-03T07:24:12.123Z,2.60
2022-08-03T07:26:38.914Z,1.87
2022-08-03T07:29:14.909Z,2.70
2022-08-03T07:31:42.658Z,2.87
2022-08-03T07:34:09.462Z,2.73
2022-08-03T07:36:36.261Z,2.07
2022-08-03T07:39:16.020Z,2.50
2022-08-03T07:41:46.143Z,4.03
2022-08-03T07:44:13.579Z,2.50
2022-08-03T07:46:40.388Z,2.80
2022-08-03T07:49:07.251Z,2.13
2022-08-03T07:51:34.279Z,2.50
2022-08-03T07:54:01.383Z,2.60
2022-08-03T07:56:28.810Z,2.17
2022-08-03T07:58:56.434Z,4.60
2022-08-03T08:01:23.608Z,2.40
2022-08-03T08:03:53.359Z,2.40
2022-08-03T08:06:21.737Z,2.23
2022-08-03T08:08:48.706Z,2.23
2022-08-03T08:11:15.645Z,2.27
2022-08-03T08:13:42.406Z,2.80
2022-08-03T08:16:09.162Z,2.17
2022-08-03T08:18:35.902Z,2.07
2022-08-03T08:21:03.358Z,2.20
2022-08-03T08:23:42.479Z,1.97
2022-08-03T08:26:11.900Z,2.30
2022-08-03T08:28:38.980Z,1.90
2022-08-03T08:31:05.896Z,1.80
2022-08-03T08:34:01.489Z,3.83
2022-08-03T08:36:21.351Z,1.83
2022-08-03T08:38:48.698Z,2.30
2022-08-03T08:41:16.205Z,1.90
2022-08-03T08:43:43.470Z,2.37
2022-08-03T08:46:23.977Z,1.93
2022-08-03T08:48:52.728Z,1.80
2022-08-03T08:51:22.458Z,3.90
2022-08-03T08:53:53.692Z,3.03
2022-08-03T08:56:25.276Z,2.00
2022-08-03T08:58:56.651Z,2.17
2022-08-03T09:01:23.691Z,2.23
2022-08-03T09:03:51.252Z,1.77
2022-08-03T09:06:18.008Z,2.00
2022-08-03T09:08:44.931Z,2.07
2022-08-03T09:11:12.304Z,1.90
2022-08-03T09:13:39.799Z,1.70
2022-08-03T09:16:22.462Z,1.50
2022-08-03T09:18:55.069Z,3.03
2022-08-03T09:21:33.344Z,3.20
2022-08-03T09:24:05.847Z,2.50
2022-08-03T09:26:36.999Z,2.93
2022-08-03T09:29:14.790Z,3.00
2022-08-03T09:31:46.884Z,1.90
2022-08-03T09:34:17.353Z,2.00
2022-08-03T09:36:50.596Z,1.70
2022-08-03T09:39:19.494Z,1.63
2022-08-03T09:42:08.470Z,1.67
2022-08-03T09:44:44.068Z,1.63
2022-08-03T09:47:13.581Z,2.00
2022-08-03T09:49:42.657Z,1.57
2022-08-03T09:52:49.433Z,1.80
2022-08-03T09:56:33.103Z,1.80
2022-08-03T09:58:09.429Z,1.70
2022-08-03T10:01:05.356Z,1.93
2022-08-03T10:04:03.064Z,1.80
2022-08-03T10:06:28.970Z,2.10
2022-08-03T10:09:28.270Z,2.13
2022-08-03T10:11:55.725Z,1.63
2022-08-03T10:14:23.597Z,1.60
2022-08-03T10:16:50.456Z,1.80
2022-08-03T10:19:17.772Z,1.60
2022-08-03T10:21:53.599Z,1.87
2022-08-03T10:24:30.656Z,1.30
2022-08-03T10:27:03.992Z,1.50
2022-08-03T10:29:37.955Z,1.50
2022-08-03T10:32:18.954Z,1.67
2022-08-03T10:34:50.942Z,1.63
2022-08-03T10:37:32.106Z,1.50
2022-08-03T10:40:00.887Z,1.20
2022-08-03T10:42:31.356Z,1.20
2022-08-03T10:45:17.883Z,1.77
2022-08-03T10:47:49.590Z,1.38
2022-08-03T10:50:17.155Z,1.30
2022-08-03T10:53:06.996Z,1.20
2022-08-03T10:56:01.748Z,1.20
2022-08-03T10:58:37.903Z,1.10
2022-08-03T11:02:00.042Z,1.00
2022-08-03T11:04:29.529Z,1.00
2022-08-03T11:07:21.653Z,1.00
2022-08-03T11:09:52.196Z,1.20
2022-08-03T11:12:28.646Z,1.13
2022-08-03T11:15:06.620Z,1.20
2022-08-03T11:17:46.217Z,1.20
2022-08-03T11:20:54.741Z,1.23
2022-08-03T11:24:02.432Z,1.20
2022-08-03T11:26:31.144Z,1.00
2022-08-03T11:29:30.826Z,0.90
2022-08-03T11:31:58.232Z,1.90
2022-08-03T11:34:25.647Z,10.13
2022-08-03T11:37:23.665Z,12.37
2022-08-03T11:39:55.005Z,7.87
2022-08-03T11:42:25.417Z,7.43
2022-08-03T11:44:55.064Z,3.43
2022-08-03T11:47:24.295Z,18.47
2022-08-03T11:49:54.829Z,26.17
2022-08-03T11:52:27.005Z,31.93
2022-08-03T11:54:56.637Z,58.90
2022-08-03T11:59:19.543Z,186.63
2022-08-03T12:00:28.369Z,403.73
2022-08-03T12:03:08.615Z,380.20
2022-08-03T12:05:52.781Z,223.37
2022-08-03T12:08:33.008Z,3.83
2022-08-03T12:11:02.899Z,1.20
2022-08-03T12:14:35.761Z,1.37
2022-08-03T12:16:28.641Z,2.00
2022-08-03T12:19:03.669Z,3.43
2022-08-03T12:21:30.891Z,1.40
2022-08-03T12:24:01.282Z,1.00
2022-08-03T12:26:30.722Z,0.93
2022-08-03T12:28:58.387Z,0.90
2022-08-03T12:31:25.631Z,1.17
2022-08-03T12:33:56.997Z,2.20
2022-08-03T12:36:24.100Z,1.47
2022-08-03T12:39:03.283Z,1.03
2022-08-03T12:41:40.767Z,2.47
2022-08-03T12:44:09.510Z,1.00
2022-08-03T12:46:46.962Z,1.10
2022-08-03T12:49:18.540Z,1.70
2022-08-03T12:51:45.330Z,1.10
2022-08-03T12:54:25.152Z,1.30
2022-08-03T12:57:02.341Z,1.53
2022-08-03T12:59:35.157Z,1.00
2022-08-03T13:02:09.825Z,1.13
2022-08-03T13:04:36.923Z,1.40
2022-08-03T13:07:17.936Z,1.07
2022-08-03T13:09:56.269Z,0.90
2022-08-03T13:12:29.808Z,1.13
2022-08-03T13:14:59.710Z,1.00
2022-08-03T13:17:27.763Z,1.10
2022-08-03T13:19:55.844Z,1.03
2022-08-03T13:22:26.073Z,1.10
2022-08-03T13:24:58.175Z,1.00
2022-08-03T13:28:13.828Z,2.00
2022-08-03T13:30:13.314Z,0.93
2022-08-03T13:32:40.184Z,1.10
2022-08-03T13:35:09.233Z,1.30
2022-08-03T13:37:37.139Z,0.90
2022-08-03T13:40:07.133Z,1.13
2022-08-03T13:42:36.583Z,1.23
2022-08-03T13:45:04.547Z,1.53
2022-08-03T13:47:31.895Z,1.03
2022-08-03T13:50:01.437Z,0.93
2022-08-03T13:52:30.948Z,1.20
2022-08-03T13:54:58.435Z,1.10
2022-08-03T13:58:18.998Z,0.90
2022-08-03T14:00:13.041Z,1.30
2022-08-03T14:02:53.997Z,0.90
2022-08-03T14:05:23.098Z,0.87
2022-08-03T14:07:49.899Z,0.93
2022-08-03T14:10:17.580Z,0.80
2022-08-03T14:12:44.409Z,1.33
2022-08-03T14:15:12.955Z,0.90
2022-08-03T14:17:49.616Z,1.00
2022-08-03T14:20:25.960Z,0.93
2022-08-03T14:23:04.251Z,0.93
2022-08-03T14:25:31.663Z,1.20
2022-08-03T14:28:10.426Z,1.17
2022-08-03T14:30:37.229Z,1.30
2022-08-03T14:33:04.229Z,1.23
2022-08-03T14:35:31.110Z,1.40
2022-08-03T14:37:57.878Z,1.13
2022-08-03T14:40:24.841Z,1.00
2022-08-03T14:42:51.608Z,0.90
2022-08-03T14:45:19.954Z,0.85
2022-08-03T14:50:26.510Z,0.77
2022-08-03T14:50:42.101Z,1.38
2022-08-03T14:53:11.172Z,3.25
2022-08-03T14:55:39.005Z,1.00
2022-08-03T14:58:23.142Z,0.90
2022-08-03T15:00:54.114Z,0.90
2022-08-03T15:03:25.643Z,1.10
2022-08-03T15:05:55.868Z,1.05
2022-08-03T15:08:25.169Z,1.85
2022-08-03T15:10:53.732Z,0.90
2022-08-03T15:13:21.228Z,1.00
2022-08-03T15:15:49.492Z,1.40
2022-08-03T15:18:16.327Z,0.88
2022-08-03T15:20:45.423Z,3.30
2022-08-03T15:23:15.163Z,0.82
2022-08-03T15:26:03.273Z,0.88
2022-08-03T15:28:31.518Z,0.93
2022-08-03T15:30:58.426Z,2.58
2022-08-03T15:33:25.268Z,1.10
2022-08-03T15:35:52.911Z,0.80
2022-08-03T15:38:19.931Z,1.02
2022-08-03T15:40:46.728Z,1.10
2022-08-03T15:43:13.608Z,1.08
2022-08-03T15:45:40.574Z,0.90
2022-08-03T15:48:08.932Z,0.93
2022-08-03T15:50:35.729Z,1.30
2022-08-03T15:53:03.374Z,1.30
2022-08-03T15:55:31.108Z,1.30
2022-08-03T15:59:04.578Z,1.03
2022-08-03T16:00:45.474Z,1.73
2022-08-03T16:03:12.212Z,1.00
2022-08-03T16:05:39.157Z,1.00
2022-08-03T16:08:10.291Z,1.20
2022-08-03T16:10:40.568Z,1.10
2022-08-03T16:13:07.972Z,1.10
2022-08-03T16:15:38.618Z,2.93
2022-08-03T16:18:09.426Z,1.00
2022-08-03T16:20:36.642Z,1.03
2022-08-03T16:23:10.702Z,1.07
2022-08-03T16:25:42.741Z,1.03
2022-08-03T16:28:14.373Z,1.10
2022-08-03T16:30:45.161Z,1.40
2022-08-03T16:33:14.768Z,1.13
2022-08-03T16:35:44.056Z,0.87
2022-08-03T16:38:15.234Z,1.23
2022-08-03T16:40:46.817Z,1.10
2022-08-03T16:43:18.904Z,0.90
2022-08-03T16:45:47.587Z,0.80
2022-08-03T16:48:18.491Z,0.90
2022-08-03T16:50:45.982Z,0.80
2022-08-03T16:53:17.082Z,0.90
2022-08-03T16:55:59.991Z,1.43
2022-08-03T16:58:34.903Z,1.20
2022-08-03T17:01:21.770Z,5.47
2022-08-03T17:04:03.565Z,1.10
2022-08-03T17:06:44.683Z,1.27
2022-08-03T17:09:17.967Z,1.33
2022-08-03T17:11:47.830Z,1.40
2022-08-03T17:14:17.518Z,1.00
2022-08-03T17:16:52.449Z,1.07
2022-08-03T17:19:23.792Z,1.10
2022-08-03T17:22:16.113Z,1.10
2022-08-03T17:24:51.556Z,1.03
2022-08-03T17:28:50.422Z,1.00
2022-08-03T17:30:15.730Z,0.97
2022-08-03T17:32:52.694Z,1.07
2022-08-03T17:35:34.475Z,1.00
2022-08-03T17:38:06.736Z,0.97
2022-08-03T17:40:37.986Z,1.10
2022-08-03T17:44:14.508Z,1.03
2022-08-03T17:45:54.763Z,1.00
2022-08-03T17:48:25.022Z,1.00
2022-08-03T17:51:03.717Z,1.07
2022-08-03T17:53:37.902Z,1.10
2022-08-03T17:56:46.686Z,2.33
2022-08-03T17:59:51.918Z,1.00
2022-08-03T18:03:12.586Z,1.10
2022-08-03T18:06:10.901Z,1.20
2022-08-03T18:08:43.639Z,1.33
2022-08-03T18:11:16.626Z,1.20
2022-08-03T18:14:16.508Z,1.00
2022-08-03T18:16:57.784Z,1.07
2022-08-03T18:20:02.082Z,1.10
2022-08-03T18:22:20.408Z,1.20
2022-08-03T18:24:49.882Z,1.00
2022-08-03T18:27:16.791Z,1.20
2022-08-03T18:29:47.187Z,1.40
2022-08-03T18:32:16.868Z,1.10
2022-08-03T18:34:53.595Z,1.00
2022-08-03T18:37:25.761Z,3.70
2022-08-03T18:39:58.118Z,1.30
2022-08-03T18:42:26.233Z,1.33
2022-08-03T18:44:56.507Z,1.40
2022-08-03T18:47:59.359Z,1.63
2022-08-03T18:50:40.972Z,1.97
2022-08-03T18:54:04.075Z,1.50
2022-08-03T18:56:49.053Z,1.43
2022-08-03T18:59:30.821Z,1.70
2022-08-03T19:02:06.496Z,1.63
2022-08-03T19:04:46.493Z,1.93
2022-08-03T19:07:24.952Z,1.87
2022-08-03T19:10:03.504Z,1.70
2022-08-03T19:12:41.378Z,1.70
2022-08-03T19:15:15.584Z,1.43
2022-08-03T19:17:53.707Z,1.60
2022-08-03T19:20:28.728Z,1.97
2022-08-03T19:22:59.349Z,1.43
2022-08-03T19:25:34.720Z,1.80
2022-08-03T19:28:06.270Z,1.73
2022-08-03T19:30:46.382Z,1.60
2022-08-03T19:33:24.362Z,1.60
2022-08-03T19:35:57.203Z,1.60
2022-08-03T19:38:28.238Z,1.50
2022-08-03T19:41:02.990Z,1.47
2022-08-03T19:43:53.907Z,1.60
2022-08-03T19:46:31.647Z,1.50
2022-08-03T19:49:14.560Z,1.83
2022-08-03T19:54:53.961Z,1.77
2022-08-03T19:57:26.967Z,1.60
2022-08-03T19:59:55.715Z,3.43
2022-08-03T20:02:26.223Z,1.80
2022-08-03T20:04:56.828Z,1.50
2022-08-03T20:07:25.839Z,1.73
2022-08-03T20:09:56.559Z,1.80
2022-08-03T20:12:27.788Z,2.37
2022-08-03T20:14:59.402Z,1.80
2022-08-03T20:17:54.648Z,1.60
2022-08-03T20:20:19.275Z,1.60
2022-08-03T20:22:52.744Z,1.63
2022-08-03T20:25:38.934Z,1.67
2022-08-03T20:28:15.409Z,2.00
2022-08-03T20:30:46.337Z,1.70
2022-08-03T20:33:19.063Z,1.60
2022-08-03T20:35:50.218Z,1.50
2022-08-03T20:38:19.969Z,1.70
2022-08-03T20:40:54.330Z,1.60
2022-08-03T20:43:21.878Z,3.27
2022-08-03T20:45:58.417Z,1.30
2022-08-03T20:48:28.621Z,1.50
2022-08-03T20:50:56.389Z,1.60
2022-08-03T20:53:56.773Z,1.67
2022-08-03T20:56:10.259Z,2.00
2022-08-03T20:58:37.849Z,1.67
2022-08-03T21:01:08.613Z,1.70
2022-08-03T21:03:40.976Z,1.43
2022-08-03T21:06:27.810Z,1.80
2022-08-03T21:09:05.172Z,1.70
2022-08-03T21:11:51.026Z,1.70
2022-08-03T21:13:03.089Z,1.70
2022-08-03T21:14:29.824Z,1.73
2022-08-03T21:16:59.330Z,1.90
2022-08-03T21:19:31.374Z,1.60
2022-08-03T21:21:59.609Z,1.80
2022-08-03T21:24:30.454Z,1.50
2022-08-03T21:26:58.193Z,1.70
2022-08-03T21:29:25.048Z,2.63
2022-08-03T21:31:51.839Z,1.70
2022-08-03T21:34:20.597Z,1.93
2022-08-03T21:36:47.485Z,2.00
2022-08-03T21:39:14.311Z,1.87
2022-08-03T21:41:41.514Z,1.80
2022-08-03T21:44:08.934Z,1.80
2022-08-03T21:46:40.678Z,1.60
2022-08-03T21:50:04.710Z,2.00
2022-08-03T21:52:05.409Z,1.90
2022-08-03T21:54:37.442Z,2.00
2022-08-03T21:57:25.047Z,4.90
2022-08-03T22:00:01.395Z,1.80
2022-08-03T22:02:32.120Z,2.07
2022-08-03T22:04:59.539Z,1.90
2022-08-03T22:07:28.984Z,2.17
2022-08-03T22:09:58.004Z,1.70
2022-08-03T22:12:28.226Z,2.00
2022-08-03T22:15:01.446Z,2.23
2022-08-03T22:17:55.241Z,1.80
2022-08-03T22:20:20.176Z,1.80
2022-08-03T22:22:56.038Z,1.53
2022-08-03T22:25:33.032Z,2.10
2022-08-03T22:28:07.476Z,1.70
2022-08-03T22:30:35.389Z,1.80
2022-08-03T22:33:05.697Z,2.00
2022-08-03T22:35:50.303Z,1.80
2022-08-03T22:38:18.545Z,2.20
2022-08-03T22:40:50.688Z,1.70
2022-08-03T22:43:17.537Z,1.67
2022-08-03T22:46:09.888Z,1.77
2022-08-03T22:48:40.826Z,2.10
2022-08-03T22:51:09.456Z,1.70
2022-08-03T22:53:36.861Z,1.93
2022-08-03T22:56:04.200Z,2.10
2022-08-03T22:58:31.033Z,1.87
2022-08-03T23:01:11.067Z,2.17
2022-08-03T23:04:00.341Z,1.80
2022-08-03T23:06:37.437Z,2.10
2022-08-03T23:09:12.472Z,1.90
2022-08-03T23:11:46.070Z,1.90
2022-08-03T23:14:18.423Z,3.23
2022-08-03T23:16:47.270Z,2.23
2022-08-03T23:19:25.722Z,2.10
2022-08-03T23:22:02.929Z,2.03
2022-08-03T23:24:34.840Z,1.90
2022-08-03T23:27:04.906Z,2.07
2022-08-03T23:29:38.378Z,1.73
2022-08-03T23:32:06.792Z,2.03
2022-08-03T23:34:52.969Z,1.83
2022-08-03T23:37:20.387Z,1.80
2022-08-03T23:39:48.787Z,2.63
2022-08-03T23:42:19.385Z,1.80
2022-08-03T23:44:46.570Z,2.07
2022-08-03T23:47:14.140Z,1.80
2022-08-03T23:49:41.460Z,2.10
2022-08-03T23:52:22.317Z,2.37
2022-08-03T23:55:22.289Z,1.97
2022-08-03T23:58:28.142Z,1.80
